This is the latest recevied weather packets stored in our database for station/object W9WRP. If no packets are shown the sender has not sent any weather packets the latest 10 day(s).
| Time | Temp. | Humidity | Pressure | Rain* | Wind** | Luminosity | Snow |
|---|---|---|---|---|---|---|---|
| 1787790206 | 46.11° C | 12% | 1010.5 hPa | 0 mm | - | 112 W/m² | - |
| 1787789902 | 45.56° C | 13% | 1010.6 hPa | 0 mm | - | 147 W/m² | - |
| 1787789601 | 45.56° C | 13% | 1010.7 hPa | 0 mm | - | 167 W/m² | - |
| 1787789300 | 46.11° C | 13% | 1010.7 hPa | 0 mm | - | 181 W/m² | - |
| 1787788996 | 45.56° C | 13% | 1010.8 hPa | 0 mm | - | 193 W/m² | - |
| 1787788693 | 46.11° C | 13% | 1010.7 hPa | 0 mm | - | 208 W/m² | - |
| 1787788389 | 46.11° C | 13% | 1010.7 hPa | 0 mm | - | 57 W/m² | - |
| 1787788089 | 46.11° C | 12% | 1010.7 hPa | 0 mm | - | 208 W/m² | - |
| 1787787784 | 45.56° C | 13% | 1010.7 hPa | 0 mm | - | 99 W/m² | - |
| 1787787483 | 46.11° C | 12% | 1010.8 hPa | 0 mm | - | 177 W/m² | - |
| 1787787182 | 46.11° C | 12% | 1010.7 hPa | 0 mm | - | 69 W/m² | - |
| 1787786877 | 46.67° C | 12% | 1010.7 hPa | 0 mm | - | 264 W/m² | - |
| 1787786572 | 45.56° C | 13% | 1010.8 hPa | 0 mm | - | 92 W/m² | - |
| 1787786267 | 46.11° C | 12% | 1010.7 hPa | 0 mm | - | 214 W/m² | - |
| 1787785963 | 46.67° C | 12% | 1011 hPa | 0 mm | - | 205 W/m² | - |
| 1787785658 | 46.11° C | 12% | 1010.6 hPa | 0 mm | - | 303 W/m² | - |
| 1787785358 | 46.67° C | 12% | 1011.1 hPa | 0 mm | - | 291 W/m² | - |
| 1787785057 | 46.67° C | 12% | 1011.2 hPa | 0 mm | - | 294 W/m² | - |
| 1787784752 | 46.11° C | 13% | 1011.1 hPa | 0 mm | - | 170 W/m² | - |
| 1787784452 | 47.22° C | 12% | 1011 hPa | 0 mm | - | 312 W/m² | - |
| 1787784146 | 47.22° C | 12% | 1011.2 hPa | 0 mm | - | 398 W/m² | - |
| 1787783842 | 47.78° C | 12% | 1011.2 hPa | 0 mm | - | 436 W/m² | - |
| 1787783537 | 47.22° C | 12% | 1011 hPa | 0 mm | - | 306 W/m² | - |
| 1787783232 | 47.22° C | 12% | 1011.4 hPa | 0 mm | - | 448 W/m² | - |
| 1787782927 | 47.22° C | 12% | 1011.3 hPa | 0 mm | - | 494 W/m² | - |
* Rain latest hour (hover to see other rain measurements)
** Current wind speed in m/s (hover to see current wind gust speed)